createdAt,value
2019-06-10T00:04:43.153Z,20.20
2019-06-10T00:09:51.162Z,20.20
2019-06-10T00:15:01.286Z,20.10
2019-06-10T00:20:11.189Z,20.00
2019-06-10T00:25:20.860Z,20.10
2019-06-10T00:30:27.675Z,20.10
2019-06-10T00:35:35.148Z,20.10
2019-06-10T00:40:42.544Z,20.10
2019-06-10T00:45:51.382Z,20.10
2019-06-10T00:51:00.997Z,20.10
2019-06-10T00:56:08.826Z,20.10
2019-06-10T01:01:21.876Z,20.00
2019-06-10T01:06:28.632Z,20.10
2019-06-10T01:11:36.086Z,19.90
2019-06-10T01:16:43.506Z,19.90
2019-06-10T01:21:51.366Z,19.60
2019-06-10T01:27:01.260Z,19.70
2019-06-10T01:32:09.755Z,19.80
2019-06-10T01:37:17.847Z,19.80
2019-06-10T01:42:25.267Z,19.80
2019-06-10T01:47:32.718Z,19.60
2019-06-10T01:52:41.094Z,19.70
2019-06-10T01:57:48.800Z,19.70
2019-06-10T02:02:56.254Z,19.60
2019-06-10T02:08:03.687Z,19.60
2019-06-10T02:13:31.969Z,19.50
2019-06-10T02:18:38.284Z,19.50
2019-06-10T02:23:45.610Z,19.60
2019-06-10T02:28:53.210Z,19.50
2019-06-10T02:34:02.553Z,19.50
2019-06-10T02:39:13.359Z,19.50
2019-06-10T02:44:29.159Z,19.50
2019-06-10T02:49:51.643Z,19.30
2019-06-10T02:54:37.986Z,19.20
2019-06-10T02:59:46.759Z,19.20
2019-06-10T03:04:54.216Z,19.30
2019-06-10T03:10:04.683Z,19.20
2019-06-10T03:15:12.589Z,19.20
2019-06-10T03:20:20.028Z,19.20
2019-06-10T03:25:27.738Z,19.10
2019-06-10T03:30:46.682Z,19.20
2019-06-10T03:35:44.309Z,19.10
2019-06-10T03:40:52.477Z,19.10
2019-06-10T03:46:02.663Z,19.20
2019-06-10T03:51:09.047Z,19.20
2019-06-10T03:56:17.169Z,19.20
2019-06-10T04:01:26.992Z,19.20
2019-06-10T04:06:33.895Z,19.20
2019-06-10T04:11:43.186Z,19.20
2019-06-10T04:16:52.542Z,19.30
2019-06-10T04:22:02.602Z,19.30
2019-06-10T04:27:12.129Z,19.20
2019-06-10T04:32:20.073Z,19.20
2019-06-10T04:37:29.351Z,19.20
2019-06-10T04:42:37.079Z,19.30
2019-06-10T04:47:44.558Z,19.30
2019-06-10T04:52:52.904Z,19.40
2019-06-10T04:58:02.528Z,19.40
2019-06-10T05:03:12.108Z,19.40
2019-06-10T05:08:19.321Z,19.40
2019-06-10T05:13:28.249Z,19.40
2019-06-10T05:18:36.084Z,19.50
2019-06-10T05:23:43.929Z,19.50
2019-06-10T05:28:52.395Z,19.70
2019-06-10T05:34:02.378Z,19.70
2019-06-10T05:39:12.153Z,19.70
2019-06-10T05:44:19.391Z,19.80
2019-06-10T05:49:27.794Z,19.60
2019-06-10T05:54:35.892Z,19.80
2019-06-10T05:59:43.376Z,19.90
2019-06-10T06:04:52.938Z,19.90
2019-06-10T06:10:02.518Z,20.00
2019-06-10T06:15:12.477Z,20.20
2019-06-10T06:20:19.943Z,20.20
2019-06-10T06:25:28.122Z,20.30
2019-06-10T06:30:37.629Z,20.30
2019-06-10T06:35:46.546Z,20.40
2019-06-10T06:40:54.269Z,20.60
2019-06-10T06:46:02.462Z,20.70
2019-06-10T06:51:12.725Z,20.80
2019-06-10T06:56:19.312Z,20.90
2019-06-10T07:01:26.881Z,21.00
2019-06-10T07:06:36.041Z,21.10
2019-06-10T07:11:46.974Z,21.30
2019-06-10T07:16:55.325Z,21.40
2019-06-10T07:22:12.294Z,21.60
2019-06-10T07:27:13.110Z,22.00
2019-06-10T07:32:22.687Z,22.00
2019-06-10T07:37:32.746Z,22.10
2019-06-10T07:42:43.643Z,22.20
2019-06-10T07:47:49.390Z,22.30
2019-06-10T07:52:56.802Z,22.60
2019-06-10T07:58:04.258Z,22.80
2019-06-10T08:03:12.889Z,23.00
2019-06-10T08:08:20.486Z,23.20
2019-06-10T08:13:27.993Z,23.20
2019-06-10T08:18:44.446Z,23.20
2019-06-10T08:23:46.886Z,23.30
2019-06-10T08:28:53.827Z,23.30
2019-06-10T08:34:03.072Z,23.30
2019-06-10T08:39:15.088Z,23.60
2019-06-10T08:44:19.863Z,23.70
2019-06-10T08:49:27.374Z,23.60
2019-06-10T08:54:34.906Z,23.60
2019-06-10T08:59:44.772Z,23.80
2019-06-10T09:04:53.648Z,23.70
2019-06-10T09:10:02.935Z,23.70
2019-06-10T09:15:12.924Z,23.70
2019-06-10T09:20:23.009Z,23.70
2019-06-10T09:25:33.395Z,23.70
2019-06-10T09:30:44.211Z,23.60
2019-06-10T09:35:52.014Z,23.60
2019-06-10T09:41:01.719Z,23.50
2019-06-10T09:46:08.989Z,23.50
2019-06-10T09:51:16.736Z,23.30
2019-06-10T09:56:24.196Z,23.30
2019-06-10T10:01:32.657Z,23.10
2019-06-10T10:06:42.105Z,22.90
2019-06-10T10:11:51.468Z,22.80
2019-06-10T10:17:00.745Z,22.80
2019-06-10T10:22:11.062Z,23.10
2019-06-10T10:27:17.742Z,23.60
2019-06-10T10:32:25.359Z,24.20
2019-06-10T10:37:32.930Z,24.60
2019-06-10T10:42:45.977Z,24.80
2019-06-10T10:47:51.847Z,25.00
2019-06-10T10:52:59.020Z,24.80
2019-06-10T10:58:06.800Z,25.00
2019-06-10T11:03:14.844Z,25.20
2019-06-10T11:08:22.951Z,25.30
2019-06-10T11:13:34.535Z,25.10
2019-06-10T11:18:42.386Z,24.80
2019-06-10T11:23:50.209Z,24.80
2019-06-10T11:28:58.020Z,24.90
2019-06-10T11:34:05.777Z,25.20
2019-06-10T11:39:13.506Z,25.40
2019-06-10T11:44:22.477Z,25.80
2019-06-10T11:49:31.207Z,25.80
2019-06-10T11:54:53.734Z,25.80
2019-06-10T11:59:48.070Z,26.30
2019-06-10T12:04:57.565Z,26.80
2019-06-10T12:10:05.181Z,27.10
2019-06-10T12:15:13.584Z,27.30
2019-06-10T12:20:22.827Z,27.50
2019-06-10T12:25:36.833Z,27.90
2019-06-10T12:30:42.180Z,28.20
2019-06-10T12:35:48.925Z,28.90
2019-06-10T12:40:58.946Z,29.50
2019-06-10T12:46:05.750Z,29.70
2019-06-10T12:51:13.795Z,29.60
2019-06-10T12:56:22.773Z,30.10
2019-06-10T13:01:32.809Z,30.40
2019-06-10T13:06:41.628Z,29.90
2019-06-10T13:11:52.618Z,29.80
2019-06-10T13:17:00.574Z,29.40
2019-06-10T13:22:08.913Z,29.20
2019-06-10T13:27:16.445Z,29.60
2019-06-10T13:32:23.991Z,30.40
2019-06-10T13:37:32.178Z,30.70
2019-06-10T13:42:42.226Z,31.20
2019-06-10T13:47:48.818Z,30.20
2019-06-10T13:52:56.414Z,29.80
2019-06-10T13:58:06.259Z,30.30
2019-06-10T14:03:16.124Z,30.50
2019-06-10T14:08:23.301Z,31.00
2019-06-10T14:13:32.677Z,30.70
2019-06-10T14:18:41.902Z,29.80
2019-06-10T14:23:49.176Z,29.50
2019-06-10T14:28:56.624Z,29.30
2019-06-10T14:34:06.107Z,29.20
2019-06-10T14:39:14.683Z,29.40
2019-06-10T14:44:23.477Z,29.00
2019-06-10T14:49:33.012Z,29.20
2019-06-10T14:54:42.684Z,29.20
2019-06-10T14:59:49.214Z,29.30
2019-06-10T15:04:56.657Z,29.10
2019-06-10T15:10:04.187Z,29.10
2019-06-10T15:15:12.269Z,28.90
2019-06-10T15:20:22.547Z,28.90
2019-06-10T15:25:29.137Z,28.80
2019-06-10T15:30:36.495Z,28.60
2019-06-10T15:35:43.757Z,28.50
2019-06-10T15:40:53.197Z,28.30
2019-06-10T15:46:00.240Z,28.50
2019-06-10T15:51:07.690Z,28.50
2019-06-10T15:56:27.015Z,28.60
2019-06-10T16:01:26.856Z,28.60
2019-06-10T16:06:34.348Z,28.40
2019-06-10T16:11:43.641Z,28.60
2019-06-10T16:16:52.568Z,28.60
2019-06-10T16:22:00.176Z,28.30
2019-06-10T16:27:07.545Z,28.40
2019-06-10T16:32:16.294Z,28.30
2019-06-10T16:37:25.346Z,28.20
2019-06-10T16:42:32.839Z,27.80
2019-06-10T16:47:42.880Z,27.90
2019-06-10T16:52:49.557Z,27.80
2019-06-10T16:57:59.691Z,27.80
2019-06-10T17:03:06.888Z,27.70
2019-06-10T17:08:14.289Z,27.80
2019-06-10T17:13:27.202Z,27.60
2019-06-10T17:18:35.537Z,27.60
2019-06-10T17:23:43.412Z,27.40
2019-06-10T17:28:52.145Z,27.30
2019-06-10T17:34:02.518Z,27.20
2019-06-10T17:39:12.355Z,27.10
2019-06-10T17:44:24.367Z,27.00
2019-06-10T17:49:34.690Z,27.10
2019-06-10T17:54:41.935Z,26.70
2019-06-10T17:59:49.386Z,26.80
2019-06-10T18:04:56.856Z,26.50
2019-06-10T18:10:04.422Z,26.40
2019-06-10T18:15:12.706Z,25.90
2019-06-10T18:20:22.336Z,26.20
2019-06-10T18:25:30.456Z,26.00
2019-06-10T18:30:38.087Z,25.80
2019-06-10T18:35:45.457Z,25.30
2019-06-10T18:40:53.548Z,25.70
2019-06-10T18:46:03.507Z,25.70
2019-06-10T18:51:12.518Z,25.60
2019-06-10T18:56:19.362Z,25.40
2019-06-10T19:01:28.105Z,25.30
2019-06-10T19:06:37.093Z,25.10
2019-06-10T19:11:44.763Z,25.00
2019-06-10T19:16:52.563Z,25.10
2019-06-10T19:22:06.161Z,25.30
2019-06-10T19:27:09.344Z,24.50
2019-06-10T19:32:18.506Z,24.60
2019-06-10T19:37:40.503Z,24.40
2019-06-10T19:42:49.338Z,24.50
2019-06-10T19:48:16.344Z,24.40
2019-06-10T19:53:37.292Z,24.40
2019-06-10T19:58:48.510Z,24.00
2019-06-10T20:03:55.940Z,23.70
2019-06-10T20:09:06.343Z,23.90
2019-06-10T20:14:14.194Z,23.20
2019-06-10T20:19:22.483Z,23.40
2019-06-10T20:24:30.115Z,23.30
2019-06-10T20:29:37.885Z,18.30
2019-06-10T20:34:45.641Z,19.30
2019-06-10T20:39:55.193Z,20.20
2019-06-10T20:45:04.989Z,19.80
2019-06-10T20:50:13.091Z,19.80
2019-06-10T20:55:23.154Z,20.20
2019-06-10T21:00:41.994Z,19.70
2019-06-10T21:05:53.312Z,19.30
2019-06-10T21:11:02.658Z,19.80
2019-06-10T21:16:09.359Z,19.70
2019-06-10T21:21:16.783Z,19.50
2019-06-10T21:26:24.265Z,19.30
2019-06-10T21:31:32.614Z,19.30
2019-06-10T21:36:41.235Z,18.80
2019-06-10T21:41:49.858Z,19.00
2019-06-10T21:46:57.388Z,18.90
2019-06-10T21:52:04.913Z,18.80
2019-06-10T21:57:12.338Z,18.90
2019-06-10T22:02:19.781Z,19.00
2019-06-10T22:07:27.242Z,18.60
2019-06-10T22:12:34.639Z,19.10
2019-06-10T22:17:42.546Z,19.10
2019-06-10T22:22:53.643Z,18.90
2019-06-10T22:28:02.704Z,18.90
2019-06-10T22:33:12.195Z,18.40
2019-06-10T22:38:18.955Z,18.70
2019-06-10T22:43:26.375Z,19.00
2019-06-10T22:48:33.772Z,19.00
2019-06-10T22:53:42.526Z,19.00
2019-06-10T22:58:53.946Z,18.90
2019-06-10T23:04:01.048Z,18.70
2019-06-10T23:09:09.376Z,18.30
2019-06-10T23:14:16.740Z,18.60
2019-06-10T23:19:27.104Z,18.30
2019-06-10T23:24:33.225Z,18.40
2019-06-10T23:29:42.618Z,18.30
2019-06-10T23:34:49.538Z,18.20
2019-06-10T23:39:56.928Z,18.30
2019-06-10T23:45:05.206Z,18.20
2019-06-10T23:50:13.097Z,18.40
2019-06-10T23:55:22.686Z,18.40
